sensor_id;sensor_type;location;lat;lon;timestamp;pressure;altitude;pressure_sealevel;temperature;humidity
53758;BME280;39674;59.860;30.672;2023-02-21T00:01:35;99086.59;;;-9.34;99.00
53758;BME280;39674;59.860;30.672;2023-02-21T00:04:22;99091.66;;;-9.42;99.39
53758;BME280;39674;59.860;30.672;2023-02-21T00:07:17;99095.91;;;-9.55;99.31
53758;BME280;39674;59.860;30.672;2023-02-21T00:10:07;99096.66;;;-9.71;98.83
53758;BME280;39674;59.860;30.672;2023-02-21T00:13:01;99101.72;;;-9.87;99.32
53758;BME280;39674;59.860;30.672;2023-02-21T00:15:51;99105.88;;;-10.00;99.31
53758;BME280;39674;59.860;30.672;2023-02-21T00:18:38;99115.19;;;-10.09;99.12
53758;BME280;39674;59.860;30.672;2023-02-21T00:21:26;99108.28;;;-10.26;99.00
53758;BME280;39674;59.860;30.672;2023-02-21T00:24:13;99106.53;;;-10.36;99.37
53758;BME280;39674;59.860;30.672;2023-02-21T00:27:16;99111.59;;;-10.44;98.75
53758;BME280;39674;59.860;30.672;2023-02-21T00:30:10;99113.16;;;-10.60;98.89
53758;BME280;39674;59.860;30.672;2023-02-21T00:33:02;99111.44;;;-10.64;99.02
53758;BME280;39674;59.860;30.672;2023-02-21T00:38:51;99130.00;;;-10.81;99.06
53758;BME280;39674;59.860;30.672;2023-02-21T00:41:40;99131.59;;;-10.89;99.51
53758;BME280;39674;59.860;30.672;2023-02-21T00:44:30;99130.69;;;-10.97;99.31
53758;BME280;39674;59.860;30.672;2023-02-21T00:47:24;99128.03;;;-11.08;99.73
53758;BME280;39674;59.860;30.672;2023-02-21T00:50:20;99129.63;;;-11.18;100.00
53758;BME280;39674;59.860;30.672;2023-02-21T00:53:13;99134.69;;;-11.21;99.98
53758;BME280;39674;59.860;30.672;2023-02-21T00:56:08;99140.59;;;-11.25;100.00
53758;BME280;39674;59.860;30.672;2023-02-21T00:58:56;99142.19;;;-11.35;100.00
53758;BME280;39674;59.860;30.672;2023-02-21T01:01:45;99144.66;;;-11.42;99.83
53758;BME280;39674;59.860;30.672;2023-02-21T01:04:34;99145.38;;;-11.51;100.00
53758;BME280;39674;59.860;30.672;2023-02-21T01:07:23;99154.69;;;-11.55;100.00
53758;BME280;39674;59.860;30.672;2023-02-21T01:10:19;99157.13;;;-11.63;100.00
53758;BME280;39674;59.860;30.672;2023-02-21T01:13:17;99157.94;;;-11.65;99.89
53758;BME280;39674;59.860;30.672;2023-02-21T01:16:08;99154.50;;;-11.70;100.00
53758;BME280;39674;59.860;30.672;2023-02-21T01:18:57;99166.41;;;-11.69;100.00
53758;BME280;39674;59.860;30.672;2023-02-21T01:21:48;99164.63;;;-11.73;100.00
53758;BME280;39674;59.860;30.672;2023-02-21T01:24:47;99163.78;;;-11.75;100.00
53758;BME280;39674;59.860;30.672;2023-02-21T01:27:37;99165.38;;;-11.81;99.89
53758;BME280;39674;59.860;30.672;2023-02-21T01:30:27;99176.34;;;-11.88;100.00
53758;BME280;39674;59.860;30.672;2023-02-21T01:33:14;99177.06;;;-11.95;100.00
53758;BME280;39674;59.860;30.672;2023-02-21T01:36:10;99177.88;;;-11.99;100.00
53758;BME280;39674;59.860;30.672;2023-02-21T01:38:58;99182.84;;;-12.08;100.00
53758;BME280;39674;59.860;30.672;2023-02-21T01:41:45;99183.59;;;-12.14;100.00
53758;BME280;39674;59.860;30.672;2023-02-21T01:44:42;99192.09;;;-12.14;100.00
53758;BME280;39674;59.860;30.672;2023-02-21T01:47:33;99191.16;;;-12.19;100.00
53758;BME280;39674;59.860;30.672;2023-02-21T01:50:22;99201.31;;;-12.22;100.00
53758;BME280;39674;59.860;30.672;2023-02-21T01:53:12;99197.84;;;-12.27;100.00
53758;BME280;39674;59.860;30.672;2023-02-21T01:56:03;99195.13;;;-12.38;100.00
53758;BME280;39674;59.860;30.672;2023-02-21T01:58:51;99203.56;;;-12.40;100.00
53758;BME280;39674;59.860;30.672;2023-02-21T02:01:45;99203.47;;;-12.45;100.00
53758;BME280;39674;59.860;30.672;2023-02-21T02:05:00;99216.09;;;-12.51;100.00
53758;BME280;39674;59.860;30.672;2023-02-21T02:07:51;99220.28;;;-12.53;100.00
53758;BME280;39674;59.860;30.672;2023-02-21T02:10:42;99221.97;;;-12.54;100.00
53758;BME280;39674;59.860;30.672;2023-02-21T02:13:46;99220.28;;;-12.53;100.00
53758;BME280;39674;59.860;30.672;2023-02-21T02:16:25;99223.53;;;-12.61;100.00
53758;BME280;39674;59.860;30.672;2023-02-21T02:24:56;99232.47;;;-12.81;100.00
53758;BME280;39674;59.860;30.672;2023-02-21T02:27:44;99242.63;;;-12.84;100.00
53758;BME280;39674;59.860;30.672;2023-02-21T02:33:14;99252.66;;;-12.92;100.00
53758;BME280;39674;59.860;30.672;2023-02-21T02:35:52;99251.78;;;-12.91;100.00
53758;BME280;39674;59.860;30.672;2023-02-21T02:38:35;99260.19;;;-12.95;100.00
53758;BME280;39674;59.860;30.672;2023-02-21T02:41:10;99264.38;;;-12.97;100.00
53758;BME280;39674;59.860;30.672;2023-02-21T02:43:44;99266.88;;;-13.00;100.00
53758;BME280;39674;59.860;30.672;2023-02-21T02:46:18;99272.66;;;-13.08;100.00
53758;BME280;39674;59.860;30.672;2023-02-21T02:48:49;99283.63;;;-13.10;100.00
53758;BME280;39674;59.860;30.672;2023-02-21T02:51:22;99291.16;;;-13.15;100.00
53758;BME280;39674;59.860;30.672;2023-02-21T02:53:55;99300.38;;;-13.18;100.00
53758;BME280;39674;59.860;30.672;2023-02-21T02:56:26;99311.38;;;-13.19;100.00
53758;BME280;39674;59.860;30.672;2023-02-21T02:59:12;99311.34;;;-13.21;100.00
53758;BME280;39674;59.860;30.672;2023-02-21T03:01:51;99324.81;;;-13.25;100.00
53758;BME280;39674;59.860;30.672;2023-02-21T03:04:32;99320.56;;;-13.26;100.00
53758;BME280;39674;59.860;30.672;2023-02-21T03:07:19;99324.69;;;-13.31;100.00
53758;BME280;39674;59.860;30.672;2023-02-21T03:09:52;99329.69;;;-13.34;100.00
53758;BME280;39674;59.860;30.672;2023-02-21T03:12:32;99332.22;;;-13.37;100.00
53758;BME280;39674;59.860;30.672;2023-02-21T03:15:06;99337.19;;;-13.41;100.00
53758;BME280;39674;59.860;30.672;2023-02-21T03:17:39;99344.75;;;-13.44;100.00
53758;BME280;39674;59.860;30.672;2023-02-21T03:20:11;99351.41;;;-13.49;100.00
53758;BME280;39674;59.860;30.672;2023-02-21T03:22:43;99358.06;;;-13.54;100.00
53758;BME280;39674;59.860;30.672;2023-02-21T03:25:14;99362.22;;;-13.56;100.00
53758;BME280;39674;59.860;30.672;2023-02-21T03:27:49;99363.91;;;-13.57;100.00
53758;BME280;39674;59.860;30.672;2023-02-21T03:30:22;99366.34;;;-13.61;100.00
53758;BME280;39674;59.860;30.672;2023-02-21T03:32:54;99362.84;;;-13.66;100.00
53758;BME280;39674;59.860;30.672;2023-02-21T03:35:27;99367.91;;;-13.66;100.00
53758;BME280;39674;59.860;30.672;2023-02-21T03:38:00;99370.38;;;-13.69;100.00
53758;BME280;39674;59.860;30.672;2023-02-21T03:40:30;99381.28;;;-13.74;100.00
53758;BME280;39674;59.860;30.672;2023-02-21T03:43:02;99379.66;;;-13.72;100.00
53758;BME280;39674;59.860;30.672;2023-02-21T03:45:37;99382.75;;;-13.82;100.00
53758;BME280;39674;59.860;30.672;2023-02-21T03:48:09;99385.31;;;-13.82;100.00
53758;BME280;39674;59.860;30.672;2023-02-21T03:50:40;99384.44;;;-13.84;100.00
53758;BME280;39674;59.860;30.672;2023-02-21T03:53:10;99403.81;;;-13.86;100.00
53758;BME280;39674;59.860;30.672;2023-02-21T03:55:44;99406.38;;;-13.86;100.00
53758;BME280;39674;59.860;30.672;2023-02-21T03:58:20;99391.91;;;-13.89;100.00
53758;BME280;39674;59.860;30.672;2023-02-21T04:00:48;99399.44;;;-13.92;100.00
53758;BME280;39674;59.860;30.672;2023-02-21T04:03:17;99406.13;;;-13.95;100.00
53758;BME280;39674;59.860;30.672;2023-02-21T04:06:00;99419.56;;;-13.99;100.00
53758;BME280;39674;59.860;30.672;2023-02-21T04:08:32;99425.44;;;-14.00;100.00
53758;BME280;39674;59.860;30.672;2023-02-21T04:11:45;99431.34;;;-14.01;100.00
53758;BME280;39674;59.860;30.672;2023-02-21T04:14:33;99437.16;;;-14.06;100.00
53758;BME280;39674;59.860;30.672;2023-02-21T04:17:31;99442.97;;;-14.10;100.00
53758;BME280;39674;59.860;30.672;2023-02-21T04:20:02;99443.63;;;-14.17;100.00
53758;BME280;39674;59.860;30.672;2023-02-21T04:22:34;99450.19;;;-14.24;100.00
53758;BME280;39674;59.860;30.672;2023-02-21T04:27:58;99455.13;;;-14.28;100.00
53758;BME280;39674;59.860;30.672;2023-02-21T04:30:29;99456.13;;;-14.23;100.00
53758;BME280;39674;59.860;30.672;2023-02-21T04:33:08;99476.44;;;-14.23;100.00
53758;BME280;39674;59.860;30.672;2023-02-21T04:35:39;99478.97;;;-14.23;100.00
53758;BME280;39674;59.860;30.672;2023-02-21T04:38:43;99483.13;;;-14.25;100.00
53758;BME280;39674;59.860;30.672;2023-02-21T04:41:24;99485.78;;;-14.22;100.00
53758;BME280;39674;59.860;30.672;2023-02-21T04:44:01;99491.66;;;-14.23;100.00
53758;BME280;39674;59.860;30.672;2023-02-21T04:46:45;99491.66;;;-14.23;100.00
53758;BME280;39674;59.860;30.672;2023-02-21T04:49:17;99503.44;;;-14.25;100.00
53758;BME280;39674;59.860;30.672;2023-02-21T04:51:56;99502.44;;;-14.30;100.00
53758;BME280;39674;59.860;30.672;2023-02-21T04:54:35;99519.31;;;-14.31;100.00
53758;BME280;39674;59.860;30.672;2023-02-21T04:57:33;99527.88;;;-14.27;100.00
53758;BME280;39674;59.860;30.672;2023-02-21T05:00:23;99533.59;;;-14.34;100.00
53758;BME280;39674;59.860;30.672;2023-02-21T05:03:23;99541.25;;;-14.33;100.00
53758;BME280;39674;59.860;30.672;2023-02-21T05:06:07;99542.06;;;-14.34;100.00
53758;BME280;39674;59.860;30.672;2023-02-21T05:08:37;99545.38;;;-14.37;100.00
53758;BME280;39674;59.860;30.672;2023-02-21T05:11:08;99546.94;;;-14.42;100.00
53758;BME280;39674;59.860;30.672;2023-02-21T05:13:40;99562.88;;;-14.44;100.00
53758;BME280;39674;59.860;30.672;2023-02-21T05:16:29;99551.03;;;-14.45;100.00
53758;BME280;39674;59.860;30.672;2023-02-21T05:18:59;99563.66;;;-14.47;100.00
53758;BME280;39674;59.860;30.672;2023-02-21T05:21:33;99568.66;;;-14.50;100.00
53758;BME280;39674;59.860;30.672;2023-02-21T05:24:27;99570.25;;;-14.52;100.00
53758;BME280;39674;59.860;30.672;2023-02-21T05:27:00;99572.75;;;-14.54;100.00
53758;BME280;39674;59.860;30.672;2023-02-21T05:29:30;99578.59;;;-14.56;100.00
53758;BME280;39674;59.860;30.672;2023-02-21T05:32:05;99587.03;;;-14.57;100.00
53758;BME280;39674;59.860;30.672;2023-02-21T05:34:34;99593.53;;;-14.65;100.00
53758;BME280;39674;59.860;30.672;2023-02-21T05:37:12;99596.75;;;-14.71;100.00
53758;BME280;39674;59.860;30.672;2023-02-21T05:39:43;99602.69;;;-14.71;100.00
53758;BME280;39674;59.860;30.672;2023-02-21T05:42:18;99610.38;;;-14.68;100.00
53758;BME280;39674;59.860;30.672;2023-02-21T05:45:02;99617.09;;;-14.70;100.00
53758;BME280;39674;59.860;30.672;2023-02-21T05:47:38;99625.50;;;-14.71;100.00
53758;BME280;39674;59.860;30.672;2023-02-21T05:50:07;99630.53;;;-14.72;100.00
53758;BME280;39674;59.860;30.672;2023-02-21T05:52:39;99630.44;;;-14.74;100.00
53758;BME280;39674;59.860;30.672;2023-02-21T05:55:11;99632.19;;;-14.73;100.00
53758;BME280;39674;59.860;30.672;2023-02-21T05:57:55;99644.78;;;-14.76;100.00
53758;BME280;39674;59.860;30.672;2023-02-21T06:00:24;99648.16;;;-14.75;100.00
53758;BME280;39674;59.860;30.672;2023-02-21T06:02:56;99657.44;;;-14.76;100.00
53758;BME280;39674;59.860;30.672;2023-02-21T06:05:30;99660.78;;;-14.77;99.90
53758;BME280;39674;59.860;30.672;2023-02-21T06:08:00;99660.59;;;-14.83;99.94
53758;BME280;39674;59.860;30.672;2023-02-21T06:10:33;99659.78;;;-14.82;100.00
53758;BME280;39674;59.860;30.672;2023-02-21T06:13:06;99668.28;;;-14.80;100.00
53758;BME280;39674;59.860;30.672;2023-02-21T06:15:40;99673.63;;;-14.72;100.00
53758;BME280;39674;59.860;30.672;2023-02-21T06:18:15;99675.59;;;-14.62;100.00
53758;BME280;39674;59.860;30.672;2023-02-21T06:20:49;99676.69;;;-14.55;99.72
53758;BME280;39674;59.860;30.672;2023-02-21T06:23:17;99677.16;;;-14.40;99.74
53758;BME280;39674;59.860;30.672;2023-02-21T06:25:51;99677.56;;;-14.27;99.43
53758;BME280;39674;59.860;30.672;2023-02-21T06:28:29;99688.00;;;-14.18;98.17
53758;BME280;39674;59.860;30.672;2023-02-21T06:31:02;99701.22;;;-14.01;97.63
53758;BME280;39674;59.860;30.672;2023-02-21T06:33:44;99708.16;;;-13.95;98.05
53758;BME280;39674;59.860;30.672;2023-02-21T06:36:16;99707.72;;;-13.82;97.55
53758;BME280;39674;59.860;30.672;2023-02-21T06:38:47;99711.53;;;-13.67;97.94
53758;BME280;39674;59.860;30.672;2023-02-21T06:41:19;99723.91;;;-13.51;97.63
53758;BME280;39674;59.860;30.672;2023-02-21T06:43:51;99722.25;;;-13.49;95.87
53758;BME280;39674;59.860;30.672;2023-02-21T06:46:21;99729.69;;;-13.55;96.16
53758;BME280;39674;59.860;30.672;2023-02-21T06:48:53;99732.06;;;-13.60;96.27
53758;BME280;39674;59.860;30.672;2023-02-21T06:51:26;99744.16;;;-13.52;96.40
53758;BME280;39674;59.860;30.672;2023-02-21T06:54:13;99747.75;;;-13.46;96.23
53758;BME280;39674;59.860;30.672;2023-02-21T06:57:00;99742.84;;;-13.40;96.46
53758;BME280;39674;59.860;30.672;2023-02-21T06:59:49;99748.25;;;-13.27;96.50
53758;BME280;39674;59.860;30.672;2023-02-21T07:02:26;99756.69;;;-13.28;95.81
53758;BME280;39674;59.860;30.672;2023-02-21T07:05:09;99763.19;;;-13.40;95.30
53758;BME280;39674;59.860;30.672;2023-02-21T07:08:01;99769.47;;;-13.56;96.04
53758;BME280;39674;59.860;30.672;2023-02-21T07:10:33;99771.06;;;-13.59;96.26
53758;BME280;39674;59.860;30.672;2023-02-21T07:13:04;99781.03;;;-13.65;95.90
53758;BME280;39674;59.860;30.672;2023-02-21T07:15:41;99789.47;;;-13.66;96.56
53758;BME280;39674;59.860;30.672;2023-02-21T07:18:17;99800.63;;;-13.61;96.78
53758;BME280;39674;59.860;30.672;2023-02-21T07:20:57;99799.81;;;-13.60;96.92
53758;BME280;39674;59.860;30.672;2023-02-21T07:23:27;99803.06;;;-13.64;96.74
53758;BME280;39674;59.860;30.672;2023-02-21T07:25:57;99811.38;;;-13.68;96.72
53758;BME280;39674;59.860;30.672;2023-02-21T07:28:29;99810.69;;;-13.64;97.39
53758;BME280;39674;59.860;30.672;2023-02-21T07:30:58;99815.88;;;-13.60;96.57
53758;BME280;39674;59.860;30.672;2023-02-21T07:33:31;99832.00;;;-13.59;97.16
53758;BME280;39674;59.860;30.672;2023-02-21T07:36:07;99825.31;;;-13.57;97.01
53758;BME280;39674;59.860;30.672;2023-02-21T07:38:37;99833.00;;;-13.54;96.36
53758;BME280;39674;59.860;30.672;2023-02-21T07:41:08;99837.38;;;-13.50;96.97
53758;BME280;39674;59.860;30.672;2023-02-21T07:43:39;99841.56;;;-13.52;96.76
53758;BME280;39674;59.860;30.672;2023-02-21T07:46:11;99850.22;;;-13.45;96.63
53758;BME280;39674;59.860;30.672;2023-02-21T07:48:48;99846.22;;;-13.38;96.73
53758;BME280;39674;59.860;30.672;2023-02-21T07:56:55;99868.78;;;-13.19;96.50
53758;BME280;39674;59.860;30.672;2023-02-21T08:00:10;99870.78;;;-13.09;96.80
53758;BME280;39674;59.860;30.672;2023-02-21T08:03:14;99877.59;;;-13.08;96.12
53758;BME280;39674;59.860;30.672;2023-02-21T08:05:46;99886.03;;;-13.09;95.35
53758;BME280;39674;59.860;30.672;2023-02-21T08:08:29;99885.38;;;-13.03;96.21
53758;BME280;39674;59.860;30.672;2023-02-21T08:11:03;99891.50;;;-12.96;96.30
53758;BME280;39674;59.860;30.672;2023-02-21T08:13:43;99899.16;;;-12.95;95.92
53758;BME280;39674;59.860;30.672;2023-02-21T08:16:21;99898.50;;;-12.89;96.12
53758;BME280;39674;59.860;30.672;2023-02-21T08:19:01;99907.22;;;-12.81;96.02
53758;BME280;39674;59.860;30.672;2023-02-21T08:24:58;99907.59;;;-12.68;96.48
53758;BME280;39674;59.860;30.672;2023-02-21T08:28:12;99915.44;;;-12.61;96.34
53758;BME280;39674;59.860;30.672;2023-02-21T08:30:54;99915.69;;;-12.53;95.56
53758;BME280;39674;59.860;30.672;2023-02-21T08:37:09;99931.16;;;-12.45;95.45
53758;BME280;39674;59.860;30.672;2023-02-21T08:40:29;99941.47;;;-12.40;95.14
53758;BME280;39674;59.860;30.672;2023-02-21T08:58:45;99969.69;;;-12.02;95.59
53758;BME280;39674;59.860;30.672;2023-02-21T09:05:31;99980.03;;;-11.95;95.21
53758;BME280;39674;59.860;30.672;2023-02-21T09:08:36;99983.66;;;-11.88;95.39
53758;BME280;39674;59.860;30.672;2023-02-21T09:11:40;99993.84;;;-11.88;93.44
53758;BME280;39674;59.860;30.672;2023-02-21T09:18:11;99994.16;;;-11.75;94.69
53758;BME280;39674;59.860;30.672;2023-02-21T09:21:15;99985.09;;;-11.66;94.13
53758;BME280;39674;59.860;30.672;2023-02-21T09:25:26;99996.31;;;-11.57;94.03
53758;BME280;39674;59.860;30.672;2023-02-21T09:34:51;100009.31;;;-11.48;90.12
53758;BME280;39674;59.860;30.672;2023-02-21T09:41:50;100011.41;;;-11.33;90.41
53758;BME280;39674;59.860;30.672;2023-02-21T09:48:07;100012.28;;;-10.98;90.68
53758;BME280;39674;59.860;30.672;2023-02-21T09:58:25;100031.66;;;-10.69;89.24
53758;BME280;39674;59.860;30.672;2023-02-21T10:08:31;100043.72;;;-10.63;89.26
53758;BME280;39674;59.860;30.672;2023-02-21T10:12:19;100041.94;;;-10.68;90.49
53758;BME280;39674;59.860;30.672;2023-02-21T11:10:47;100113.69;;;-9.38;88.19
53758;BME280;39674;59.860;30.672;2023-02-21T11:14:20;100115.47;;;-9.32;86.15
53758;BME280;39674;59.860;30.672;2023-02-21T11:19:49;100114.25;;;-9.08;86.05
53758;BME280;39674;59.860;30.672;2023-02-21T11:22:37;100122.38;;;-8.83;87.11
53758;BME280;39674;59.860;30.672;2023-02-21T11:25:37;100122.69;;;-8.65;85.40
53758;BME280;39674;59.860;30.672;2023-02-21T11:28:39;100121.28;;;-8.46;84.71
53758;BME280;39674;59.860;30.672;2023-02-21T11:31:17;100125.78;;;-8.29;83.64
53758;BME280;39674;59.860;30.672;2023-02-21T11:33:49;100130.44;;;-8.05;82.78
53758;BME280;39674;59.860;30.672;2023-02-21T11:36:32;100129.03;;;-7.84;82.61
53758;BME280;39674;59.860;30.672;2023-02-21T11:39:06;100143.66;;;-7.77;83.47
53758;BME280;39674;59.860;30.672;2023-02-21T11:41:53;100146.25;;;-7.74;80.90
53758;BME280;39674;59.860;30.672;2023-02-21T11:44:50;100145.94;;;-7.96;76.71
53758;BME280;39674;59.860;30.672;2023-02-21T11:47:55;100139.53;;;-8.26;79.76
53758;BME280;39674;59.860;30.672;2023-02-21T11:50:50;100150.22;;;-8.51;80.08
53758;BME280;39674;59.860;30.672;2023-02-21T11:54:10;100161.81;;;-8.72;79.87
53758;BME280;39674;59.860;30.672;2023-02-21T11:57:08;100163.22;;;-8.90;81.68
53758;BME280;39674;59.860;30.672;2023-02-21T12:00:13;100159.63;;;-8.98;82.24
53758;BME280;39674;59.860;30.672;2023-02-21T12:03:12;100168.78;;;-9.11;81.81
53758;BME280;39674;59.860;30.672;2023-02-21T12:05:55;100167.06;;;-9.12;82.75
53758;BME280;39674;59.860;30.672;2023-02-21T12:21:11;100182.03;;;-9.30;82.17
53758;BME280;39674;59.860;30.672;2023-02-21T12:24:10;100188.81;;;-9.32;83.05
53758;BME280;39674;59.860;30.672;2023-02-21T12:27:14;100196.63;;;-9.25;83.54
53758;BME280;39674;59.860;30.672;2023-02-21T12:33:07;100196.72;;;-9.22;83.68
53758;BME280;39674;59.860;30.672;2023-02-21T12:39:12;100200.13;;;-9.20;83.86
53758;BME280;39674;59.860;30.672;2023-02-21T12:42:15;100215.56;;;-9.16;83.96
53758;BME280;39674;59.860;30.672;2023-02-21T12:45:21;100224.16;;;-9.14;84.19
53758;BME280;39674;59.860;30.672;2023-02-21T12:47:57;100218.22;;;-9.12;84.93
53758;BME280;39674;59.860;30.672;2023-02-21T12:50:37;100236.13;;;-9.13;84.08
53758;BME280;39674;59.860;30.672;2023-02-21T12:53:34;100231.00;;;-9.13;83.92
53758;BME280;39674;59.860;30.672;2023-02-21T12:56:20;100241.28;;;-9.10;84.65
53758;BME280;39674;59.860;30.672;2023-02-21T12:58:58;100248.03;;;-9.12;83.65
53758;BME280;39674;59.860;30.672;2023-02-21T13:01:56;100254.03;;;-9.13;84.15
53758;BME280;39674;59.860;30.672;2023-02-21T13:04:34;100255.66;;;-9.17;82.51
53758;BME280;39674;59.860;30.672;2023-02-21T13:07:15;100263.28;;;-9.19;83.21
53758;BME280;39674;59.860;30.672;2023-02-21T13:09:58;100275.25;;;-9.17;84.03
53758;BME280;39674;59.860;30.672;2023-02-21T13:12:38;100276.13;;;-9.17;84.04
53758;BME280;39674;59.860;30.672;2023-02-21T13:15:24;100282.09;;;-9.16;84.63
53758;BME280;39674;59.860;30.672;2023-02-21T13:18:04;100289.75;;;-9.18;83.91
53758;BME280;39674;59.860;30.672;2023-02-21T13:20:45;100291.47;;;-9.17;84.27
53758;BME280;39674;59.860;30.672;2023-02-21T13:23:39;100291.53;;;-9.14;85.04
53758;BME280;39674;59.860;30.672;2023-02-21T13:26:59;100297.59;;;-9.09;85.50
53758;BME280;39674;59.860;30.672;2023-02-21T13:36:24;100312.00;;;-9.12;85.83
53758;BME280;39674;59.860;30.672;2023-02-21T13:39:39;100322.31;;;-9.11;86.16
53758;BME280;39674;59.860;30.672;2023-02-21T13:42:56;100329.94;;;-9.12;86.10
53758;BME280;39674;59.860;30.672;2023-02-21T14:12:53;100371.47;;;-9.24;88.42
53758;BME280;39674;59.860;30.672;2023-02-21T14:43:26;100414.97;;;-9.58;90.13
53758;BME280;39674;59.860;30.672;2023-02-21T14:46:12;100414.06;;;-9.60;90.39
53758;BME280;39674;59.860;30.672;2023-02-21T14:48:54;100417.34;;;-9.64;90.93
53758;BME280;39674;59.860;30.672;2023-02-21T14:54:55;100423.88;;;-9.75;91.18
53758;BME280;39674;59.860;30.672;2023-02-21T15:01:03;100427.09;;;-9.82;91.38
53758;BME280;39674;59.860;30.672;2023-02-21T15:04:11;100433.84;;;-9.85;92.05
53758;BME280;39674;59.860;30.672;2023-02-21T15:07:19;100430.41;;;-9.87;91.99
53758;BME280;39674;59.860;30.672;2023-02-21T15:10:52;100435.25;;;-9.96;92.07
53758;BME280;39674;59.860;30.672;2023-02-21T15:13:47;100452.16;;;-10.01;91.94
53758;BME280;39674;59.860;30.672;2023-02-21T15:16:29;100452.94;;;-10.04;92.43
53758;BME280;39674;59.860;30.672;2023-02-21T15:19:19;100454.56;;;-10.06;92.33
53758;BME280;39674;59.860;30.672;2023-02-21T15:28:13;100467.19;;;-10.12;92.86
53758;BME280;39674;59.860;30.672;2023-02-21T15:30:56;100469.66;;;-10.15;93.02
53758;BME280;39674;59.860;30.672;2023-02-21T15:33:33;100472.16;;;-10.17;92.62
53758;BME280;39674;59.860;30.672;2023-02-21T15:36:58;100477.19;;;-10.20;93.12
53758;BME280;39674;59.860;30.672;2023-02-21T15:42:31;100493.16;;;-10.27;92.96
53758;BME280;39674;59.860;30.672;2023-02-21T15:45:17;100497.34;;;-10.29;93.13
53758;BME280;39674;59.860;30.672;2023-02-21T15:50:22;100509.22;;;-10.31;93.23
53758;BME280;39674;59.860;30.672;2023-02-21T15:55:34;100534.31;;;-10.46;93.80
53758;BME280;39674;59.860;30.672;2023-02-21T15:58:16;100535.13;;;-10.48;93.91
53758;BME280;39674;59.860;30.672;2023-02-21T16:00:46;100530.75;;;-10.52;93.87
53758;BME280;39674;59.860;30.672;2023-02-21T16:03:48;100544.31;;;-10.53;94.10
53758;BME280;39674;59.860;30.672;2023-02-21T16:06:49;100549.31;;;-10.56;93.92
53758;BME280;39674;59.860;30.672;2023-02-21T16:09:33;100542.28;;;-10.63;94.01
53758;BME280;39674;59.860;30.672;2023-02-21T16:12:40;100552.44;;;-10.65;94.39
53758;BME280;39674;59.860;30.672;2023-02-21T16:15:28;100560.91;;;-10.66;94.89
53758;BME280;39674;59.860;30.672;2023-02-21T16:18:22;100557.50;;;-10.66;94.40
53758;BME280;39674;59.860;30.672;2023-02-21T16:21:25;100564.25;;;-10.68;95.20
53758;BME280;39674;59.860;30.672;2023-02-21T16:24:25;100567.56;;;-10.71;95.23
53758;BME280;39674;59.860;30.672;2023-02-21T16:27:14;100571.75;;;-10.73;94.79
53758;BME280;39674;59.860;30.672;2023-02-21T16:32:37;100584.31;;;-10.79;95.18
53758;BME280;39674;59.860;30.672;2023-02-21T16:35:11;100584.25;;;-10.81;94.99
53758;BME280;39674;59.860;30.672;2023-02-21T16:40:42;100592.66;;;-10.85;95.54
53758;BME280;39674;59.860;30.672;2023-02-21T16:43:42;100606.22;;;-10.86;95.76
53758;BME280;39674;59.860;30.672;2023-02-21T16:46:24;100603.53;;;-10.89;95.90
53758;BME280;39674;59.860;30.672;2023-02-21T16:49:10;100601.88;;;-10.88;96.29
53758;BME280;39674;59.860;30.672;2023-02-21T16:51:41;100600.09;;;-10.91;96.05
53758;BME280;39674;59.860;30.672;2023-02-21T16:54:13;100600.03;;;-10.92;96.26
53758;BME280;39674;59.860;30.672;2023-02-21T16:56:43;100602.53;;;-10.94;96.24
53758;BME280;39674;59.860;30.672;2023-02-21T16:59:32;100613.53;;;-10.95;96.77
53758;BME280;39674;59.860;30.672;2023-02-21T17:11:34;100614.91;;;-11.05;97.28
53758;BME280;39674;59.860;30.672;2023-02-21T17:14:41;100623.31;;;-11.07;97.17
53758;BME280;39674;59.860;30.672;2023-02-21T17:17:18;100618.19;;;-11.09;96.91
53758;BME280;39674;59.860;30.672;2023-02-21T17:19:46;100619.78;;;-11.11;97.52
53758;BME280;39674;59.860;30.672;2023-02-21T17:22:46;100618.94;;;-11.11;97.72
53758;BME280;39674;59.860;30.672;2023-02-21T17:25:26;100624.03;;;-11.11;97.57
53758;BME280;39674;59.860;30.672;2023-02-21T17:28:11;100629.91;;;-11.14;97.74
53758;BME280;39674;59.860;30.672;2023-02-21T17:30:50;100637.50;;;-11.16;97.80
53758;BME280;39674;59.860;30.672;2023-02-21T17:33:31;100630.66;;;-11.17;97.93
53758;BME280;39674;59.860;30.672;2023-02-21T17:36:10;100641.63;;;-11.19;98.15
53758;BME280;39674;59.860;30.672;2023-02-21T17:38:43;100639.91;;;-11.20;98.43
53758;BME280;39674;59.860;30.672;2023-02-21T17:44:05;100641.50;;;-11.22;98.11
53758;BME280;39674;59.860;30.672;2023-02-21T17:46:34;100638.09;;;-11.23;98.50
53758;BME280;39674;59.860;30.672;2023-02-21T17:49:02;100644.81;;;-11.25;98.97
53758;BME280;39674;59.860;30.672;2023-02-21T17:51:31;100645.75;;;-11.23;98.86
53758;BME280;39674;59.860;30.672;2023-02-21T17:54:09;100652.47;;;-11.25;98.12
53758;BME280;39674;59.860;30.672;2023-02-21T17:56:38;100650.72;;;-11.26;98.39
53758;BME280;39674;59.860;30.672;2023-02-21T18:02:14;100655.78;;;-11.27;98.81
53758;BME280;39674;59.860;30.672;2023-02-21T18:04:45;100656.59;;;-11.29;99.44
53758;BME280;39674;59.860;30.672;2023-02-21T18:07:27;100659.09;;;-11.30;99.55
53758;BME280;39674;59.860;30.672;2023-02-21T18:09:58;100666.66;;;-11.32;99.32
53758;BME280;39674;59.860;30.672;2023-02-21T18:12:32;100672.53;;;-11.34;99.50
53758;BME280;39674;59.860;30.672;2023-02-21T18:15:02;100669.97;;;-11.34;98.89
53758;BME280;39674;59.860;30.672;2023-02-21T18:17:38;100673.22;;;-11.38;99.30
53758;BME280;39674;59.860;30.672;2023-02-21T18:20:08;100681.63;;;-11.41;98.99
53758;BME280;39674;59.860;30.672;2023-02-21T18:22:37;100671.41;;;-11.42;99.30